createdAt,value
2019-05-05T00:01:59.267Z,81.64
2019-05-05T00:04:30.791Z,81.54
2019-05-05T00:07:00.829Z,81.37
2019-05-05T00:09:31.047Z,81.29
2019-05-05T00:12:05.867Z,81.60
2019-05-05T00:14:37.340Z,82.00
2019-05-05T00:17:08.826Z,82.96
2019-05-05T00:19:38.833Z,83.24
2019-05-05T00:22:08.771Z,83.17
2019-05-05T00:24:38.816Z,82.97
2019-05-05T00:27:08.751Z,83.42
2019-05-05T00:29:38.679Z,83.99
2019-05-05T00:32:08.611Z,84.55
2019-05-05T00:34:38.445Z,85.20
2019-05-05T00:37:08.386Z,85.85
2019-05-05T00:39:38.319Z,86.40
2019-05-05T00:42:08.233Z,86.67
2019-05-05T00:44:38.151Z,86.55
2019-05-05T00:47:26.175Z,86.93
2019-05-05T00:49:56.450Z,87.66
2019-05-05T00:52:26.502Z,88.38
2019-05-05T00:54:56.326Z,88.53
2019-05-05T00:57:26.267Z,88.80
2019-05-05T00:59:56.207Z,89.02
2019-05-05T01:02:27.727Z,88.82
2019-05-05T01:05:17.240Z,88.52
2019-05-05T01:07:47.179Z,88.74
2019-05-05T01:10:17.316Z,87.99
2019-05-05T01:12:47.244Z,87.96
2019-05-05T01:15:18.723Z,87.86
2019-05-05T01:17:49.689Z,87.49
2019-05-05T01:20:19.717Z,87.94
2019-05-05T01:22:49.753Z,88.12
2019-05-05T01:25:19.687Z,88.28
2019-05-05T01:27:49.613Z,88.42
2019-05-05T01:30:24.438Z,88.55
2019-05-05T01:32:56.129Z,87.18
2019-05-05T01:35:26.271Z,85.79
2019-05-05T01:37:57.845Z,85.18
2019-05-05T01:40:29.417Z,84.92
2019-05-05T01:42:59.356Z,85.09
2019-05-05T01:45:29.294Z,86.16
2019-05-05T01:47:59.127Z,86.84
2019-05-05T01:50:29.162Z,86.93
2019-05-05T01:52:59.056Z,87.27
2019-05-05T01:55:29.026Z,87.42
2019-05-05T01:57:59.167Z,87.42
2019-05-05T02:00:29.206Z,87.36
2019-05-05T02:02:59.238Z,87.55
2019-05-05T02:05:29.176Z,87.96
2019-05-05T02:07:59.109Z,88.22
2019-05-05T02:10:28.939Z,88.36
2019-05-05T02:12:58.871Z,88.03
2019-05-05T02:15:28.918Z,87.79
2019-05-05T02:17:58.848Z,87.83
2019-05-05T02:20:49.953Z,87.34
2019-05-05T02:23:19.975Z,87.92
2019-05-05T02:25:49.845Z,87.44
2019-05-05T02:28:19.867Z,87.46
2019-05-05T02:30:57.577Z,87.26
2019-05-05T02:33:27.619Z,87.32
2019-05-05T02:35:57.541Z,87.06
2019-05-05T02:38:27.481Z,86.70
2019-05-05T02:40:58.502Z,86.31
2019-05-05T02:43:29.611Z,85.87
2019-05-05T02:46:09.762Z,85.33
2019-05-05T02:48:40.205Z,84.86
2019-05-05T02:51:14.809Z,84.19
2019-05-05T02:53:46.108Z,84.14
2019-05-05T02:56:19.392Z,84.05
2019-05-05T02:58:53.689Z,83.95
2019-05-05T03:01:33.876Z,83.79
2019-05-05T03:04:04.571Z,83.66
2019-05-05T03:06:35.470Z,83.58
2019-05-05T03:09:07.325Z,83.34
2019-05-05T03:11:38.254Z,82.97
2019-05-05T03:14:10.748Z,82.69
2019-05-05T03:16:43.421Z,82.10
2019-05-05T03:19:14.224Z,81.12
2019-05-05T03:21:44.944Z,80.38
2019-05-05T03:24:14.508Z,80.16
2019-05-05T03:26:44.722Z,79.34
2019-05-05T03:29:19.260Z,78.86
2019-05-05T03:31:50.110Z,78.46
2019-05-05T03:34:21.047Z,78.27
2019-05-05T03:36:51.208Z,78.45
2019-05-05T03:39:23.654Z,77.43
2019-05-05T03:41:55.778Z,76.93
2019-05-05T03:44:27.554Z,76.77
2019-05-05T03:46:57.696Z,76.47
2019-05-05T03:49:29.271Z,76.16
2019-05-05T03:51:59.203Z,75.98
2019-05-05T03:54:29.351Z,75.80
2019-05-05T03:57:08.299Z,75.18
2019-05-05T03:59:40.106Z,74.75
2019-05-05T04:02:27.899Z,74.36
2019-05-05T04:05:03.996Z,73.71
2019-05-05T04:07:33.997Z,73.58
2019-05-05T04:10:04.966Z,73.45
2019-05-05T04:12:35.283Z,72.62
2019-05-05T04:15:06.454Z,72.37
2019-05-05T04:17:38.947Z,71.79
2019-05-05T04:20:19.622Z,71.43
2019-05-05T04:22:48.864Z,70.91
2019-05-05T04:25:18.772Z,70.21
2019-05-05T04:27:48.718Z,70.02
2019-05-05T04:30:18.637Z,69.53
2019-05-05T04:32:48.579Z,69.21
2019-05-05T04:35:18.613Z,68.85
2019-05-05T04:37:48.537Z,68.58
2019-05-05T04:40:18.597Z,67.92
2019-05-05T04:42:48.566Z,66.25
2019-05-05T04:45:18.657Z,65.78
2019-05-05T04:47:53.986Z,64.66
2019-05-05T04:50:25.594Z,65.29
2019-05-05T04:52:57.058Z,64.92
2019-05-05T04:55:27.021Z,64.57
2019-05-05T04:57:56.945Z,63.88
2019-05-05T05:00:26.971Z,63.61
2019-05-05T05:03:04.506Z,63.05
2019-05-05T05:05:36.038Z,62.49
2019-05-05T05:08:05.981Z,61.01
2019-05-05T05:10:35.907Z,60.47
2019-05-05T05:13:05.842Z,58.53
2019-05-05T05:15:35.746Z,57.67
2019-05-05T05:18:07.250Z,57.32
2019-05-05T05:20:37.234Z,56.88
2019-05-05T05:23:07.215Z,55.96
2019-05-05T05:25:37.257Z,55.65
2019-05-05T05:28:07.293Z,54.93
2019-05-05T05:30:37.538Z,55.10
2019-05-05T05:33:07.457Z,54.01
2019-05-05T05:35:37.500Z,53.46
2019-05-05T05:38:07.458Z,52.49
2019-05-05T05:40:38.959Z,52.19
2019-05-05T05:43:10.477Z,51.47
2019-05-05T05:45:47.976Z,48.52
2019-05-05T05:48:28.340Z,47.76
2019-05-05T05:50:59.986Z,47.13
2019-05-05T05:53:29.863Z,46.71
2019-05-05T05:55:59.990Z,47.35
2019-05-05T05:58:30.030Z,47.34
2019-05-05T09:17:28.034Z,26.57
2019-05-05T09:19:57.466Z,24.96
2019-05-05T09:22:27.397Z,25.96
2019-05-05T09:25:05.200Z,24.80
2019-05-05T09:27:44.281Z,23.78
2019-05-05T09:30:16.206Z,23.89
2019-05-05T09:32:46.162Z,22.88
2019-05-05T09:35:16.092Z,22.39
2019-05-05T09:37:46.037Z,24.35
2019-05-05T09:40:18.788Z,23.92
2019-05-05T09:42:48.768Z,21.48
2019-05-05T09:45:18.012Z,20.39
2019-05-05T09:47:51.393Z,23.62
2019-05-05T09:50:23.583Z,27.42
2019-05-05T09:52:53.618Z,29.03
2019-05-05T09:55:24.175Z,22.34
2019-05-05T09:57:54.304Z,19.02
2019-05-05T10:00:24.468Z,20.56
2019-05-05T10:02:54.677Z,21.18
2019-05-05T10:05:23.831Z,17.86
2019-05-05T10:07:54.468Z,15.84
2019-05-05T10:10:24.482Z,14.98
2019-05-05T10:12:54.994Z,16.64
2019-05-05T10:15:25.078Z,17.40
2019-05-05T10:17:54.325Z,19.91
2019-05-05T10:20:24.230Z,17.61
2019-05-05T10:22:54.283Z,16.74
2019-05-05T10:25:37.730Z,18.41
2019-05-05T10:28:07.738Z,19.66
2019-05-05T10:30:37.701Z,24.02
2019-05-05T10:33:07.606Z,19.53
2019-05-05T10:35:37.567Z,17.10
2019-05-05T10:38:07.481Z,22.67
2019-05-05T10:40:37.413Z,28.39
2019-05-05T10:43:07.458Z,29.66
2019-05-05T10:45:37.495Z,20.51
2019-05-05T10:48:07.526Z,17.30
2019-05-05T10:50:37.467Z,17.03
2019-05-05T10:53:07.393Z,20.22
2019-05-05T10:55:37.347Z,20.71
2019-05-05T10:58:07.369Z,17.88
2019-05-05T11:00:44.323Z,22.20
2019-05-05T11:03:15.269Z,26.47
2019-05-05T11:05:46.392Z,21.86
2019-05-05T11:08:16.619Z,26.43
2019-05-05T11:10:46.558Z,29.27
2019-05-05T11:13:16.598Z,27.68
2019-05-05T11:15:46.934Z,29.67
2019-05-05T11:18:16.180Z,29.77
2019-05-05T11:20:46.063Z,30.89
2019-05-05T11:23:15.847Z,31.16
2019-05-05T11:25:45.744Z,31.58
2019-05-05T11:28:15.683Z,32.10
2019-05-05T11:30:47.665Z,32.47
2019-05-05T11:33:35.302Z,32.81
2019-05-05T11:36:24.029Z,33.05
2019-05-05T11:38:54.080Z,32.01
2019-05-05T11:41:24.343Z,30.31
2019-05-05T11:43:53.682Z,21.74
2019-05-05T11:46:24.730Z,18.87
2019-05-05T11:48:55.870Z,18.00
2019-05-05T11:51:25.809Z,21.35
2019-05-05T11:53:55.740Z,28.15
2019-05-05T11:56:25.674Z,31.29
2019-05-05T11:58:55.604Z,31.79
2019-05-05T12:01:25.544Z,27.92
2019-05-05T12:03:55.461Z,21.00
2019-05-05T12:06:25.361Z,18.06
2019-05-05T12:08:55.179Z,21.74
2019-05-05T12:11:25.098Z,29.32
2019-05-05T12:13:55.137Z,23.41
2019-05-05T12:16:31.921Z,23.41
2019-05-05T12:19:03.489Z,30.30
2019-05-05T12:21:33.826Z,34.01
2019-05-05T12:24:05.593Z,34.74
2019-05-05T12:26:37.172Z,35.46
2019-05-05T12:29:09.767Z,35.21
2019-05-05T12:31:41.329Z,25.24
2019-05-05T12:34:11.403Z,20.93
2019-05-05T12:36:41.397Z,23.43
2019-05-05T12:39:14.170Z,25.03
2019-05-05T12:41:44.437Z,28.04
2019-05-05T12:44:16.020Z,28.81
2019-05-05T12:46:50.548Z,26.18
2019-05-05T12:49:22.707Z,23.64
2019-05-05T12:51:54.075Z,20.74
2019-05-05T12:54:24.544Z,21.02
2019-05-05T12:56:54.492Z,28.66
2019-05-05T12:59:25.946Z,26.07
2019-05-05T13:01:56.092Z,30.12
2019-05-05T13:04:26.023Z,30.81
2019-05-05T13:06:56.170Z,25.55
2019-05-05T13:09:26.299Z,23.79
2019-05-05T13:11:56.341Z,26.30
2019-05-05T13:14:26.271Z,30.40
2019-05-05T13:16:56.266Z,32.28
2019-05-05T13:19:30.756Z,34.13
2019-05-05T13:22:05.176Z,33.81
2019-05-05T13:24:51.685Z,30.72
2019-05-05T13:27:34.233Z,28.96
2019-05-05T13:30:05.882Z,30.45
2019-05-05T13:32:35.820Z,32.11
2019-05-05T13:35:07.445Z,30.58
2019-05-05T13:37:37.423Z,32.55
2019-05-05T13:40:08.065Z,34.28
2019-05-05T13:42:38.001Z,34.33
2019-05-05T13:45:20.212Z,35.19
2019-05-05T13:47:50.145Z,34.61
2019-05-05T13:50:36.749Z,34.39
2019-05-05T13:53:06.690Z,33.94
2019-05-05T13:55:36.620Z,34.13
2019-05-05T13:58:08.686Z,34.16
2019-05-05T14:00:38.160Z,34.30
2019-05-05T14:03:08.159Z,31.54
2019-05-05T14:05:38.107Z,29.71
2019-05-05T14:08:08.242Z,29.12
2019-05-05T14:10:38.184Z,29.31
2019-05-05T14:13:10.462Z,28.97
2019-05-05T14:15:40.092Z,30.59
2019-05-05T14:18:10.021Z,30.71
2019-05-05T14:20:39.919Z,31.17
2019-05-05T14:23:09.895Z,30.83
2019-05-05T14:25:39.822Z,29.61
2019-05-05T14:28:09.769Z,29.11
2019-05-05T14:30:41.240Z,30.24
2019-05-05T14:33:15.461Z,28.83
2019-05-05T14:35:54.014Z,28.33
2019-05-05T14:38:41.008Z,28.55
2019-05-05T14:41:10.867Z,28.56
2019-05-05T14:43:40.875Z,28.70
2019-05-05T14:46:10.911Z,29.12
2019-05-05T14:48:40.814Z,28.79
2019-05-05T14:51:10.775Z,30.00
2019-05-05T14:53:43.753Z,30.53
2019-05-05T14:56:14.128Z,30.12
2019-05-05T14:58:44.261Z,29.88
2019-05-05T15:01:14.525Z,29.86
2019-05-05T15:03:44.626Z,30.32
2019-05-05T15:06:19.917Z,30.31
2019-05-05T15:08:51.472Z,30.60
2019-05-05T15:11:26.123Z,30.75
2019-05-05T15:13:56.045Z,30.73
2019-05-05T15:16:26.494Z,30.40
2019-05-05T15:18:55.634Z,30.73
2019-05-05T15:21:25.545Z,31.03
2019-05-05T15:23:55.474Z,31.23
2019-05-05T15:26:25.401Z,31.56
2019-05-05T15:29:01.324Z,32.05
2019-05-05T15:31:26.981Z,32.55
2019-05-05T15:33:56.958Z,32.06
2019-05-05T15:36:29.386Z,32.32
2019-05-05T15:38:58.345Z,32.00
2019-05-05T15:41:28.394Z,32.51
2019-05-05T15:43:58.343Z,32.77
2019-05-05T15:46:28.274Z,33.07
2019-05-05T15:48:58.099Z,33.52
2019-05-05T15:51:29.109Z,34.21
2019-05-05T15:53:59.032Z,35.37
2019-05-05T15:56:29.031Z,36.10
2019-05-05T15:58:58.960Z,36.21
2019-05-05T16:01:28.810Z,36.30
2019-05-05T16:03:58.827Z,36.34
2019-05-05T16:06:28.765Z,36.59
2019-05-05T16:08:58.711Z,37.09
2019-05-05T16:11:28.739Z,37.07
2019-05-05T16:14:01.087Z,37.55
2019-05-05T16:16:38.013Z,37.76
2019-05-05T16:19:09.602Z,37.78
2019-05-05T16:21:50.263Z,38.23
2019-05-05T16:24:21.725Z,38.50
2019-05-05T16:26:53.760Z,38.93
2019-05-05T16:29:23.755Z,39.15
2019-05-05T16:31:53.655Z,39.55
2019-05-05T16:34:23.654Z,39.94
2019-05-05T16:36:54.427Z,40.15
2019-05-05T16:39:25.687Z,40.38
2019-05-05T16:41:56.005Z,40.83
2019-05-05T16:44:25.912Z,41.24
2019-05-05T16:46:57.347Z,41.40
2019-05-05T16:49:27.522Z,41.75
2019-05-05T16:52:00.765Z,42.19
2019-05-05T16:54:33.657Z,42.72
2019-05-05T16:57:05.670Z,42.92
2019-05-05T16:59:35.346Z,43.40
2019-05-05T17:02:05.277Z,43.75
2019-05-05T17:04:36.339Z,44.16
2019-05-05T17:07:06.268Z,44.53
2019-05-05T17:09:36.201Z,44.71
2019-05-05T17:12:13.914Z,44.99
2019-05-05T17:15:01.745Z,45.17
2019-05-05T17:17:40.372Z,45.94
2019-05-05T17:20:13.901Z,46.20
2019-05-05T17:22:45.416Z,46.26
2019-05-05T17:25:15.601Z,46.54
2019-05-05T17:27:50.473Z,46.91
2019-05-05T17:30:18.950Z,47.15
2019-05-05T17:32:50.431Z,47.52
2019-05-05T17:35:20.558Z,47.76
2019-05-05T17:37:50.614Z,48.02
2019-05-05T17:40:24.131Z,48.27
2019-05-05T17:43:02.325Z,48.54
2019-05-05T17:45:34.369Z,48.82
2019-05-05T17:48:06.072Z,49.38
2019-05-05T17:50:53.580Z,49.66
2019-05-05T17:53:25.475Z,50.12
2019-05-05T17:55:57.054Z,51.01
2019-05-05T17:58:27.703Z,51.67
2019-05-05T18:00:59.412Z,51.89
2019-05-05T18:03:29.514Z,52.33
2019-05-05T18:06:05.281Z,51.81
2019-05-05T18:08:40.641Z,51.92
2019-05-05T18:11:21.511Z,52.81
2019-05-05T18:13:54.338Z,53.22
2019-05-05T18:16:27.021Z,54.05
2019-05-05T18:18:57.246Z,54.45
2019-05-05T18:21:31.750Z,54.95
2019-05-05T18:23:58.758Z,54.47
2019-05-05T18:26:28.804Z,54.83
2019-05-05T18:28:58.741Z,54.25
2019-05-05T18:31:28.765Z,53.75
2019-05-05T18:33:59.610Z,53.42
2019-05-05T18:36:29.630Z,53.47
2019-05-05T18:38:59.591Z,53.47
2019-05-05T18:41:36.995Z,53.54
2019-05-05T18:44:24.182Z,53.62
2019-05-05T18:47:14.437Z,53.79
2019-05-05T18:49:42.288Z,53.84
2019-05-05T18:52:13.860Z,54.19
2019-05-05T18:54:44.004Z,54.21
2019-05-05T18:57:13.881Z,54.31
2019-05-05T18:59:44.703Z,54.62
2019-05-05T19:02:24.047Z,54.81
2019-05-05T19:05:13.532Z,54.98
2019-05-05T19:07:55.602Z,55.00
2019-05-05T19:10:24.256Z,55.23
2019-05-05T19:12:55.303Z,55.42
2019-05-05T19:15:25.307Z,55.53
2019-05-05T19:17:55.246Z,55.81
2019-05-05T19:20:29.481Z,55.89
2019-05-05T19:23:05.856Z,56.10
2019-05-05T19:25:35.950Z,56.43
2019-05-05T19:28:05.926Z,56.73
2019-05-05T19:30:36.330Z,56.96
2019-05-05T19:33:06.447Z,56.91
2019-05-05T19:35:44.120Z,57.09
2019-05-05T19:38:09.244Z,57.65
2019-05-05T19:40:39.225Z,57.90
2019-05-05T19:43:09.312Z,58.34
2019-05-05T19:45:39.361Z,58.48
2019-05-05T19:48:09.219Z,58.63
2019-05-05T19:50:44.497Z,58.84
2019-05-05T19:53:25.525Z,58.84
2019-05-05T19:55:56.278Z,59.02
2019-05-05T19:58:26.206Z,58.98
2019-05-05T20:00:57.794Z,59.37
2019-05-05T20:03:27.901Z,59.57
2019-05-05T20:05:57.753Z,59.67
2019-05-05T20:08:39.968Z,59.82
2019-05-05T20:10:59.367Z,59.75
2019-05-05T20:13:29.295Z,60.01
2019-05-05T20:16:10.065Z,60.28
2019-05-05T20:18:40.017Z,60.50
2019-05-05T20:21:09.937Z,60.60
2019-05-05T20:23:39.897Z,60.94
2019-05-05T20:26:09.808Z,61.18
2019-05-05T20:28:39.744Z,61.36
2019-05-05T20:31:09.694Z,61.39
2019-05-05T20:33:54.392Z,61.54
2019-05-05T20:36:31.951Z,62.01
2019-05-05T20:39:04.207Z,62.10
2019-05-05T20:41:35.187Z,62.07
2019-05-05T20:44:05.910Z,62.23
2019-05-05T20:46:35.981Z,62.39
2019-05-05T20:49:05.914Z,62.87
2019-05-05T20:51:35.760Z,62.98
2019-05-05T20:54:05.594Z,63.39
2019-05-05T20:56:35.422Z,63.69
2019-05-05T20:59:05.502Z,64.16
2019-05-05T21:01:35.385Z,64.34
2019-05-05T21:04:05.430Z,64.58
2019-05-05T21:06:35.454Z,64.35
2019-05-05T21:09:08.282Z,64.40
2019-05-05T21:11:38.304Z,64.55
2019-05-05T21:14:08.236Z,64.72
2019-05-05T21:16:38.165Z,64.64
2019-05-05T21:19:07.994Z,64.63
2019-05-05T21:21:39.977Z,64.85
2019-05-05T21:24:09.919Z,65.31
2019-05-05T21:26:47.387Z,65.62
2019-05-05T21:29:18.061Z,65.72
2019-05-05T21:31:47.521Z,66.06
2019-05-05T21:34:17.424Z,66.21
2019-05-05T21:36:47.375Z,66.36
2019-05-05T21:39:17.293Z,66.63
2019-05-05T21:41:49.800Z,66.71
2019-05-05T21:44:20.231Z,66.55
2019-05-05T21:46:50.158Z,66.64
2019-05-05T21:49:20.093Z,66.94
2019-05-05T21:51:54.737Z,67.20
2019-05-05T21:54:43.789Z,68.06
2019-05-05T21:57:31.325Z,68.59
2019-05-05T22:00:01.369Z,69.16
2019-05-05T22:02:34.536Z,70.44
2019-05-05T22:05:06.336Z,71.32
2019-05-05T22:07:36.279Z,72.72
2019-05-05T22:10:07.133Z,72.52
2019-05-05T22:12:37.177Z,72.96
2019-05-05T22:15:07.623Z,73.04
2019-05-05T22:17:37.551Z,73.33
2019-05-05T22:20:09.015Z,73.32
2019-05-05T22:22:40.602Z,73.56
2019-05-05T22:25:10.634Z,73.37
2019-05-05T22:27:40.565Z,72.33
2019-05-05T22:30:10.730Z,72.83
2019-05-05T22:32:40.638Z,73.82
2019-05-05T22:35:14.066Z,74.70
2019-05-05T22:37:43.934Z,75.31
2019-05-05T22:40:24.346Z,75.56
2019-05-05T22:42:55.525Z,76.17
2019-05-05T22:45:26.580Z,76.28
2019-05-05T22:47:56.510Z,76.52
2019-05-05T22:50:27.774Z,76.17
2019-05-05T22:52:57.835Z,75.94
2019-05-05T22:55:27.737Z,75.77
2019-05-05T22:57:57.678Z,76.06
2019-05-05T23:00:29.732Z,77.03
2019-05-05T23:03:14.978Z,77.46
2019-05-05T23:05:55.707Z,77.36
2019-05-05T23:08:24.939Z,77.44
2019-05-05T23:10:54.763Z,77.97
2019-05-05T23:13:24.701Z,78.11
2019-05-05T23:15:56.182Z,77.85
2019-05-05T23:18:27.603Z,77.62
2019-05-05T23:21:15.910Z,78.00
2019-05-05T23:23:56.016Z,78.22
2019-05-05T23:26:29.759Z,77.78
2019-05-05T23:28:59.688Z,77.75
2019-05-05T23:31:30.654Z,78.07
2019-05-05T23:34:00.682Z,78.23
2019-05-05T23:39:04.986Z,77.44
2019-05-05T23:41:35.499Z,76.63
2019-05-05T23:44:05.936Z,75.24
2019-05-05T23:46:35.905Z,74.26
2019-05-05T23:49:05.816Z,73.88
2019-05-05T23:51:35.863Z,73.52
2019-05-05T23:54:05.794Z,72.97
2019-05-05T23:56:35.827Z,73.34
2019-05-05T23:59:05.761Z,73.96
